Elena Laquay — WDJ3359 — position and weather

sailwx.info

Track history (hours):
 
Tides and Currents Weather Stations Pressure Air Temp Water Temp Dewpoint Dewpoint Depression Visibility Wind Speed Wind Dir Waves Ship Positions

Elena Laquay

Owner: ORION MARINE CONSTRUCTION, INC., PORT LAVACA, TX. More information available from US FCC via Universal Licensing System.

Last reported at 2018-May-22 00:18 UTC. Time now 2018-May-24 00:18 UTC.
Position N 29°44' W 095°09'.

Length 13 m; draft 2 m.

Type: Ship. MMSI: 367767260.

Date/timePositionNaut miles runAvg speedWind from/ knotsBaromVisibWave heightAir tempDewpointWater temp
2018-May-22 00:18N 29°44' W 095°09'  
2018-May-18 10:33N 29°45' W 095°06'0 0.1
2018-May-18 10:27N 29°45' W 095°06'0 0.0
2018-May-18 09:56N 29°45' W 095°06'0 0.0
2018-May-18 09:30N 29°45' W 095°06'0 0.0
2018-May-18 08:56N 29°45' W 095°06'0 0.1
2018-May-18 08:30N 29°45' W 095°06'0 0.3
2018-May-18 08:00N 29°44' W 095°06'0 0.0
2018-May-18 07:30N 29°44' W 095°06'0 0.0
2018-May-18 07:00N 29°44' W 095°06'0 0.0
2018-May-18 06:30N 29°44' W 095°06'0 0.2
2018-May-18 05:15N 29°45' W 095°06'0 0.0
2018-May-18 04:56N 29°45' W 095°06'0 0.6
2018-May-18 04:30N 29°44' W 095°06'0 0.2
2018-May-18 04:00N 29°44' W 095°07'0 0.5
2018-May-18 03:30N 29°44' W 095°06'0 0.4
2018-May-18 03:00N 29°44' W 095°07'0 0.2
2018-May-18 02:30N 29°44' W 095°06'0 0.0
2018-May-17 08:26N 29°45' W 095°06'2 1.0
2018-May-17 06:17N 29°44' W 095°09'1 1.9
2018-May-17 05:40N 29°44' W 095°07'1 1.3
2018-May-17 05:10N 29°44' W 095°07'1 0.6
2018-May-17 04:11N 29°45' W 095°06'0 0.0
2018-May-17 04:00N 29°45' W 095°06'0 0.0
2018-May-17 03:28N 29°45' W 095°06'0 0.0
2018-May-17 03:00N 29°45' W 095°06'0 0.0
2018-May-16 14:25N 29°45' W 095°06'2 5.1
2018-May-16 13:59N 29°47' W 095°05'0 0.5
2018-May-16 13:29N 29°47' W 095°06'3 3.7
2018-May-16 12:48N 29°45' W 095°06'0 0.0
2018-May-16 12:30N 29°45' W 095°06'0 0.0
2018-May-16 12:00N 29°45' W 095°06'0 0.0
2018-May-16 11:30N 29°45' W 095°06'0 0.0
2018-May-16 11:00N 29°45' W 095°06'0 0.0
2018-May-16 10:30N 29°45' W 095°06'0 0.0
2018-May-16 09:57N 29°45' W 095°06'0 0.0
2018-May-16 09:30N 29°45' W 095°06'0 0.0
2018-May-16 08:41N 29°45' W 095°06'0 0.0
2018-May-16 08:29N 29°45' W 095°06'0 0.0
2018-May-16 07:59N 29°45' W 095°06'0 0.0
2018-May-16 07:29N 29°45' W 095°06'0 0.0
2018-May-16 07:00N 29°45' W 095°06'0 0.0
2018-May-16 06:30N 29°45' W 095°06'0 0.0
2018-May-16 05:57N 29°45' W 095°06'0 0.0
2018-May-16 05:28N 29°45' W 095°06'0 0.0
2018-May-16 05:00N 29°45' W 095°06'0 0.0
2018-May-16 04:28N 29°45' W 095°06'0 0.0
2018-May-16 04:00N 29°45' W 095°06'0 0.0
2018-May-16 03:30N 29°45' W 095°06'1 0.1
2018-May-15 14:30N 29°46' W 095°07'1 1.2
2018-May-15 13:21N 29°44' W 095°06'0 0.0
2018-May-15 12:41N 29°44' W 095°06'0 0.2
2018-May-15 12:29N 29°44' W 095°06'0 0.1
2018-May-15 11:28N 29°45' W 095°06'0 0.0
2018-May-15 10:29N 29°45' W 095°06'0 0.0
2018-May-15 09:58N 29°45' W 095°06'0 0.0
2018-May-15 09:25N 29°45' W 095°06'0 0.0
2018-May-15 03:53N 29°45' W 095°06'0 0.0
2018-May-15 03:23N 29°45' W 095°06'0 0.0
2018-May-15 02:58N 29°45' W 095°06'0 0.0
2018-May-15 01:19N 29°45' W 095°06'  
Track history (hours):
 
Tides and Currents Weather Stations Pressure Air Temp Water Temp Dewpoint Dewpoint Depression Visibility Wind Speed Wind Dir Waves Ship Positions

Elena Laquay

Owner: ORION MARINE CONSTRUCTION, INC., PORT LAVACA, TX. More information available from US FCC via Universal Licensing System.

Last reported at 2018-May-22 00:18 UTC. Time now 2018-May-24 00:18 UTC.
Position N 29°44' W 095°09'.

Length 13 m; draft 2 m.

Type: Ship. MMSI: 367767260.

Date/timePositionNaut miles runAvg speedWind from/ knotsBaromVisibWave heightAir tempDewpointWater temp
2018-May-22 00:18N 29°44' W 095°09'  
2018-May-18 10:33N 29°45' W 095°06'0 0.1
2018-May-18 10:27N 29°45' W 095°06'0 0.0
2018-May-18 09:56N 29°45' W 095°06'0 0.0
2018-May-18 09:30N 29°45' W 095°06'0 0.0
2018-May-18 08:56N 29°45' W 095°06'0 0.1
2018-May-18 08:30N 29°45' W 095°06'0 0.3
2018-May-18 08:00N 29°44' W 095°06'0 0.0
2018-May-18 07:30N 29°44' W 095°06'0 0.0
2018-May-18 07:00N 29°44' W 095°06'0 0.0
2018-May-18 06:30N 29°44' W 095°06'0 0.2
2018-May-18 05:15N 29°45' W 095°06'0 0.0
2018-May-18 04:56N 29°45' W 095°06'0 0.6
2018-May-18 04:30N 29°44' W 095°06'0 0.2
2018-May-18 04:00N 29°44' W 095°07'0 0.5
2018-May-18 03:30N 29°44' W 095°06'0 0.4
2018-May-18 03:00N 29°44' W 095°07'0 0.2
2018-May-18 02:30N 29°44' W 095°06'0 0.0
2018-May-17 08:26N 29°45' W 095°06'2 1.0
2018-May-17 06:17N 29°44' W 095°09'1 1.9
2018-May-17 05:40N 29°44' W 095°07'1 1.3
2018-May-17 05:10N 29°44' W 095°07'1 0.6
2018-May-17 04:11N 29°45' W 095°06'0 0.0
2018-May-17 04:00N 29°45' W 095°06'0 0.0
2018-May-17 03:28N 29°45' W 095°06'0 0.0
2018-May-17 03:00N 29°45' W 095°06'0 0.0
2018-May-16 14:25N 29°45' W 095°06'2 5.1
2018-May-16 13:59N 29°47' W 095°05'0 0.5
2018-May-16 13:29N 29°47' W 095°06'3 3.7
2018-May-16 12:48N 29°45' W 095°06'0 0.0
2018-May-16 12:30N 29°45' W 095°06'0 0.0
2018-May-16 12:00N 29°45' W 095°06'0 0.0
2018-May-16 11:30N 29°45' W 095°06'0 0.0
2018-May-16 11:00N 29°45' W 095°06'0 0.0
2018-May-16 10:30N 29°45' W 095°06'0 0.0
2018-May-16 09:57N 29°45' W 095°06'0 0.0
2018-May-16 09:30N 29°45' W 095°06'0 0.0
2018-May-16 08:41N 29°45' W 095°06'0 0.0
2018-May-16 08:29N 29°45' W 095°06'0 0.0
2018-May-16 07:59N 29°45' W 095°06'0 0.0
2018-May-16 07:29N 29°45' W 095°06'0 0.0
2018-May-16 07:00N 29°45' W 095°06'0 0.0
2018-May-16 06:30N 29°45' W 095°06'0 0.0
2018-May-16 05:57N 29°45' W 095°06'0 0.0
2018-May-16 05:28N 29°45' W 095°06'0 0.0
2018-May-16 05:00N 29°45' W 095°06'0 0.0
2018-May-16 04:28N 29°45' W 095°06'0 0.0
2018-May-16 04:00N 29°45' W 095°06'0 0.0
2018-May-16 03:30N 29°45' W 095°06'1 0.1
2018-May-15 14:30N 29°46' W 095°07'1 1.2
2018-May-15 13:21N 29°44' W 095°06'0 0.0
2018-May-15 12:41N 29°44' W 095°06'0 0.2
2018-May-15 12:29N 29°44' W 095°06'0 0.1
2018-May-15 11:28N 29°45' W 095°06'0 0.0
2018-May-15 10:29N 29°45' W 095°06'0 0.0
2018-May-15 09:58N 29°45' W 095°06'0 0.0
2018-May-15 09:25N 29°45' W 095°06'0 0.0
2018-May-15 03:53N 29°45' W 095°06'0 0.0
2018-May-15 03:23N 29°45' W 095°06'0 0.0
2018-May-15 02:58N 29°45' W 095°06'0 0.0
2018-May-15 01:19N 29°45' W 095°06'  

Dump ship's entire track history